createdAt,value
2023-03-15T00:00:49.954Z,5.50
2023-03-15T00:03:05.548Z,5.00
2023-03-15T00:05:18.197Z,7.00
2023-03-15T00:07:31.443Z,6.20
2023-03-15T00:09:44.017Z,9.70
2023-03-15T00:11:56.816Z,5.40
2023-03-15T00:14:10.555Z,7.40
2023-03-15T00:16:27.015Z,5.60
2023-03-15T00:18:39.738Z,7.50
2023-03-15T00:20:52.438Z,7.10
2023-03-15T00:23:05.092Z,5.80
2023-03-15T00:25:17.925Z,6.10
2023-03-15T00:27:30.664Z,4.60
2023-03-15T00:29:43.398Z,4.30
2023-03-15T00:31:56.068Z,7.60
2023-03-15T00:34:08.686Z,6.10
2023-03-15T00:36:24.842Z,4.90
2023-03-15T00:38:39.872Z,5.60
2023-03-15T00:40:52.509Z,5.30
2023-03-15T00:43:05.390Z,5.80
2023-03-15T00:45:20.785Z,6.60
2023-03-15T00:47:33.746Z,6.50
2023-03-15T00:49:46.412Z,7.30
2023-03-15T00:51:59.012Z,7.30
2023-03-15T00:54:13.821Z,8.10
2023-03-15T00:56:30.032Z,5.70
2023-03-15T00:58:43.735Z,6.30
2023-03-15T01:00:56.641Z,6.20
2023-03-15T01:03:09.735Z,7.60
2023-03-15T01:05:23.156Z,7.70
2023-03-15T01:07:36.274Z,8.70
2023-03-15T01:09:49.204Z,8.10
2023-03-15T01:12:01.951Z,8.30
2023-03-15T01:14:14.750Z,9.30
2023-03-15T01:16:27.946Z,7.50
2023-03-15T01:18:41.425Z,6.50
2023-03-15T01:20:54.361Z,8.00
2023-03-15T01:23:07.142Z,6.70
2023-03-15T01:25:20.003Z,7.60
2023-03-15T01:27:32.946Z,7.30
2023-03-15T01:29:45.717Z,7.50
2023-03-15T01:31:58.517Z,9.60
2023-03-15T01:34:11.296Z,9.50
2023-03-15T01:36:24.618Z,6.80
2023-03-15T01:38:37.487Z,7.50
2023-03-15T01:40:50.278Z,7.30
2023-03-15T01:43:06.027Z,9.70
2023-03-15T01:45:56.313Z,6.30
2023-03-15T01:48:09.079Z,7.00
2023-03-15T01:50:25.478Z,7.90
2023-03-15T01:52:41.486Z,6.10
2023-03-15T01:55:02.167Z,6.70
2023-03-15T01:57:27.212Z,6.40
2023-03-15T01:59:45.398Z,6.50
2023-03-15T02:02:00.060Z,8.10
2023-03-15T02:04:18.399Z,7.70
2023-03-15T02:06:35.073Z,6.20
2023-03-15T02:08:55.130Z,7.80
2023-03-15T02:11:07.941Z,7.60
2023-03-15T02:13:23.717Z,8.20
2023-03-15T02:15:36.393Z,7.80
2023-03-15T02:17:49.287Z,6.10
2023-03-15T02:20:14.495Z,8.10
2023-03-15T02:22:41.539Z,7.30
2023-03-15T02:25:13.652Z,8.20
2023-03-15T02:27:30.726Z,7.30
2023-03-15T02:29:43.769Z,7.90
2023-03-15T02:31:57.926Z,6.90
2023-03-15T02:34:10.593Z,7.60
2023-03-15T02:37:19.296Z,7.30
2023-03-15T02:39:31.932Z,8.40
2023-03-15T02:41:48.637Z,6.50
2023-03-15T02:44:11.375Z,7.70
2023-03-15T02:46:24.258Z,9.20
2023-03-15T02:48:38.466Z,8.90
2023-03-15T02:50:51.009Z,7.50
2023-03-15T02:53:03.950Z,7.10
2023-03-15T02:55:19.282Z,8.30
2023-03-15T02:57:31.915Z,7.20
2023-03-15T02:59:44.569Z,7.20
2023-03-15T03:01:57.193Z,6.60
2023-03-15T03:04:09.922Z,9.20
2023-03-15T03:06:22.773Z,8.60
2023-03-15T03:08:35.410Z,8.80
2023-03-15T03:10:48.100Z,9.40
2023-03-15T03:13:00.702Z,7.00
2023-03-15T03:15:13.335Z,8.20
2023-03-15T03:17:26.008Z,7.70
2023-03-15T03:19:38.528Z,5.60
2023-03-15T03:21:54.499Z,7.80
2023-03-15T03:24:07.338Z,8.30
2023-03-15T03:26:19.929Z,8.50
2023-03-15T03:28:33.290Z,7.60
2023-03-15T03:30:45.924Z,10.80
2023-03-15T03:32:58.541Z,8.00
2023-03-15T03:35:11.247Z,8.60
2023-03-15T03:37:23.862Z,8.20
2023-03-15T03:39:36.495Z,7.60
2023-03-15T03:41:49.898Z,9.70
2023-03-15T03:44:02.505Z,6.70
2023-03-15T03:46:15.087Z,8.50
2023-03-15T03:48:27.774Z,8.60
2023-03-15T03:50:40.499Z,7.50
2023-03-15T03:52:53.112Z,8.60
2023-03-15T03:55:06.184Z,8.40
2023-03-15T03:57:18.737Z,11.00
2023-03-15T03:59:31.370Z,8.00
2023-03-15T04:01:43.965Z,9.20
2023-03-15T04:03:56.553Z,8.90
2023-03-15T04:06:09.507Z,8.40
2023-03-15T04:08:23.745Z,8.60
2023-03-15T04:10:36.305Z,8.20
2023-03-15T04:12:48.891Z,7.00
2023-03-15T04:15:01.645Z,6.70
2023-03-15T04:17:14.230Z,7.00
2023-03-15T04:19:27.093Z,5.90
2023-03-15T04:21:39.647Z,7.60
2023-03-15T04:23:52.181Z,5.70
2023-03-15T04:26:08.266Z,7.40
2023-03-15T04:28:22.784Z,8.80
2023-03-15T04:30:35.337Z,9.30
2023-03-15T04:32:47.949Z,11.40
2023-03-15T04:35:02.209Z,7.80
2023-03-15T04:37:14.759Z,7.90
2023-03-15T04:39:27.430Z,11.40
2023-03-15T04:41:40.056Z,9.20
2023-03-15T04:43:52.629Z,7.50
2023-03-15T04:46:05.244Z,8.80
2023-03-15T04:48:17.833Z,9.50
2023-03-15T04:50:31.765Z,8.30
2023-03-15T04:52:44.320Z,9.50
2023-03-15T04:54:56.880Z,9.30
2023-03-15T04:57:09.564Z,10.80
2023-03-15T04:59:22.108Z,10.10
2023-03-15T05:01:34.704Z,10.00
2023-03-15T05:03:47.256Z,6.90
2023-03-15T05:06:07.887Z,9.50
2023-03-15T05:08:20.796Z,7.20
2023-03-15T05:10:33.465Z,9.00
2023-03-15T05:12:46.014Z,8.70
2023-03-15T05:14:58.585Z,10.00
2023-03-15T05:17:11.093Z,8.40
2023-03-15T05:19:24.115Z,10.10
2023-03-15T05:21:36.894Z,9.30
2023-03-15T05:23:49.389Z,7.20
2023-03-15T05:26:02.113Z,9.30
2023-03-15T05:28:18.291Z,7.30
2023-03-15T05:30:31.651Z,7.60
2023-03-15T05:32:44.891Z,8.20
2023-03-15T05:34:57.508Z,11.30
2023-03-15T05:37:10.329Z,7.80
2023-03-15T05:39:23.489Z,10.20
2023-03-15T05:41:36.159Z,10.10
2023-03-15T05:43:48.693Z,5.90
2023-03-15T05:46:01.284Z,7.90
2023-03-15T05:48:14.441Z,8.90
2023-03-15T05:50:28.252Z,9.30
2023-03-15T05:52:40.806Z,11.20
2023-03-15T05:54:53.449Z,7.70
2023-03-15T05:57:06.040Z,9.80
2023-03-15T05:59:18.555Z,9.40
2023-03-15T06:01:31.637Z,11.00
2023-03-15T06:03:44.259Z,8.70
2023-03-15T06:05:57.817Z,7.90
2023-03-15T06:08:10.481Z,8.20
2023-03-15T06:10:23.047Z,7.70
2023-03-15T06:12:35.600Z,6.90
2023-03-15T06:14:48.297Z,8.40
2023-03-15T06:17:00.995Z,8.40
2023-03-15T06:19:13.664Z,10.20
2023-03-15T06:21:27.351Z,8.80
2023-03-15T06:23:39.893Z,9.20
2023-03-15T06:25:52.515Z,10.00
2023-03-15T06:28:05.159Z,9.10
2023-03-15T06:30:18.264Z,10.70
2023-03-15T06:32:30.921Z,8.00
2023-03-15T06:34:43.449Z,8.40
2023-03-15T06:36:56.052Z,7.40
2023-03-15T06:39:11.244Z,6.90
2023-03-15T06:41:23.765Z,9.30
2023-03-15T06:43:36.606Z,8.40
2023-03-15T06:45:49.291Z,8.00
2023-03-15T06:48:01.918Z,7.80
2023-03-15T06:50:14.534Z,9.50
2023-03-15T06:52:27.715Z,8.30
2023-03-15T06:54:40.272Z,7.60
2023-03-15T06:56:52.821Z,7.90
2023-03-15T06:59:05.348Z,8.00
2023-03-15T07:01:17.896Z,7.30
2023-03-15T07:03:30.460Z,10.30
2023-03-15T07:05:42.999Z,9.10
2023-03-15T07:07:55.524Z,11.00
2023-03-15T07:10:08.694Z,10.30
2023-03-15T07:12:21.300Z,8.40
2023-03-15T07:14:34.742Z,7.50
2023-03-15T07:16:48.110Z,11.30
2023-03-15T07:19:01.342Z,8.20
2023-03-15T07:21:13.880Z,9.00
2023-03-15T07:23:27.131Z,9.30
2023-03-15T07:25:53.882Z,11.30
2023-03-15T07:28:07.216Z,15.00
2023-03-15T07:30:20.804Z,10.00
2023-03-15T07:32:33.458Z,10.60
2023-03-15T07:34:46.024Z,10.40
2023-03-15T07:36:58.539Z,10.70
2023-03-15T07:39:11.747Z,8.50
2023-03-15T07:41:24.288Z,11.30
2023-03-15T07:43:36.821Z,8.30
2023-03-15T07:45:49.887Z,12.70
2023-03-15T07:48:02.497Z,15.40
2023-03-15T07:50:17.288Z,10.80
2023-03-15T07:52:29.954Z,8.10
2023-03-15T07:54:42.435Z,7.60
2023-03-15T07:56:54.962Z,8.60
2023-03-15T07:59:07.585Z,8.40
2023-03-15T08:01:20.088Z,8.60
2023-03-15T08:03:32.751Z,8.80
2023-03-15T08:05:45.307Z,6.90
2023-03-15T08:07:57.846Z,6.90
2023-03-15T08:10:10.942Z,9.10
2023-03-15T08:12:24.456Z,7.50
2023-03-15T08:14:37.670Z,8.10
2023-03-15T08:16:50.880Z,10.30
2023-03-15T08:19:03.437Z,9.40
2023-03-15T08:21:16.020Z,8.80
2023-03-15T08:23:28.555Z,8.00
2023-03-15T08:25:41.656Z,8.00
2023-03-15T08:27:54.311Z,9.10
2023-03-15T08:30:07.559Z,7.70
2023-03-15T08:32:21.476Z,9.90
2023-03-15T08:34:35.239Z,7.10
2023-03-15T08:36:48.627Z,8.70
2023-03-15T08:39:01.192Z,7.20
2023-03-15T08:41:13.702Z,7.80
2023-03-15T08:43:26.586Z,4.90
2023-03-15T08:45:56.873Z,9.10
2023-03-15T08:48:14.313Z,9.60
2023-03-15T08:50:28.535Z,8.30
2023-03-15T08:52:41.822Z,7.80
2023-03-15T08:54:54.394Z,9.20
2023-03-15T08:57:06.961Z,9.30
2023-03-15T08:59:31.521Z,9.20
2023-03-15T09:01:44.918Z,7.10
2023-03-15T09:03:57.542Z,7.10
2023-03-15T09:06:10.136Z,8.90
2023-03-15T09:08:25.232Z,10.20
2023-03-15T09:10:37.792Z,9.00
2023-03-15T09:12:53.659Z,7.60
2023-03-15T09:15:07.984Z,8.70
2023-03-15T09:17:21.078Z,9.70
2023-03-15T09:19:33.734Z,7.90
2023-03-15T09:21:47.193Z,7.90
2023-03-15T09:23:59.789Z,7.60
2023-03-15T09:26:12.278Z,6.90
2023-03-15T09:28:27.885Z,7.40
2023-03-15T09:30:41.357Z,7.70
2023-03-15T09:32:53.909Z,9.40
2023-03-15T09:35:08.906Z,7.10
2023-03-15T09:37:21.935Z,7.50
2023-03-15T09:39:34.505Z,7.60
2023-03-15T09:41:58.920Z,8.10
2023-03-15T09:44:38.253Z,6.80
2023-03-15T09:47:28.499Z,6.20
2023-03-15T09:50:18.059Z,9.20
2023-03-15T09:52:37.285Z,6.20
2023-03-15T09:54:56.858Z,10.20
2023-03-15T09:57:23.838Z,7.50
2023-03-15T09:59:42.917Z,7.00
2023-03-15T10:01:57.721Z,6.40
2023-03-15T10:04:18.994Z,6.10
2023-03-15T10:06:36.474Z,6.90
2023-03-15T10:08:53.494Z,6.40
2023-03-15T10:11:18.858Z,6.50
2023-03-15T10:13:42.527Z,7.10
2023-03-15T10:16:35.136Z,6.60
2023-03-15T10:19:13.795Z,6.80
2023-03-15T10:21:49.464Z,6.30
2023-03-15T10:24:04.301Z,4.60
2023-03-15T10:26:23.019Z,6.30
2023-03-15T10:28:37.607Z,6.50
2023-03-15T10:30:51.540Z,4.30
2023-03-15T10:33:15.715Z,5.00
2023-03-15T10:35:28.682Z,7.90
2023-03-15T10:37:42.620Z,5.00
2023-03-15T10:39:58.235Z,6.50
2023-03-15T10:42:27.056Z,4.90
2023-03-15T10:44:39.545Z,4.20
2023-03-15T10:47:23.685Z,4.90
2023-03-15T10:49:39.149Z,4.30
2023-03-15T10:51:51.915Z,4.50
2023-03-15T10:54:24.021Z,4.80
2023-03-15T10:56:45.444Z,5.00
2023-03-15T10:59:11.953Z,7.10
2023-03-15T11:01:28.603Z,6.00
2023-03-15T11:03:43.976Z,5.00
2023-03-15T11:05:58.828Z,5.10
2023-03-15T11:08:14.747Z,5.60
2023-03-15T11:10:29.535Z,8.80
2023-03-15T11:12:42.500Z,5.20
2023-03-15T11:15:04.155Z,5.20
2023-03-15T11:17:26.699Z,4.40
2023-03-15T11:19:42.471Z,6.70
2023-03-15T11:21:56.343Z,6.80
2023-03-15T11:24:20.976Z,6.40
2023-03-15T11:26:37.791Z,5.90
2023-03-15T11:28:54.103Z,5.80
2023-03-15T11:31:06.856Z,4.70
2023-03-15T11:33:51.250Z,5.60
2023-03-15T11:36:13.416Z,8.30
2023-03-15T11:38:35.040Z,12.70
2023-03-15T11:40:53.561Z,10.10
2023-03-15T11:43:23.096Z,5.80
2023-03-15T11:45:42.550Z,4.80
2023-03-15T11:47:59.689Z,6.20
2023-03-15T11:50:15.602Z,8.30
2023-03-15T11:52:29.702Z,5.70
2023-03-15T11:54:44.974Z,7.50
2023-03-15T11:57:28.314Z,7.90
2023-03-15T11:59:45.886Z,8.20
2023-03-15T12:02:26.283Z,7.60
2023-03-15T12:04:44.661Z,4.90
2023-03-15T12:06:59.648Z,5.00
2023-03-15T12:09:40.586Z,7.00
2023-03-15T12:11:58.551Z,4.80
2023-03-15T12:14:27.163Z,5.40
2023-03-15T12:16:45.959Z,6.10
2023-03-15T12:19:01.406Z,5.90
2023-03-15T12:21:35.409Z,4.70
2023-03-15T12:23:58.922Z,6.80
2023-03-15T12:26:23.173Z,7.80
2023-03-15T12:29:09.872Z,4.40
2023-03-15T12:31:22.715Z,7.80
2023-03-15T12:33:58.381Z,4.60
2023-03-15T12:36:20.034Z,4.50
2023-03-15T12:38:37.614Z,7.50
2023-03-15T12:40:56.663Z,9.40
2023-03-15T12:43:12.235Z,6.70
2023-03-15T12:45:27.796Z,6.60
2023-03-15T12:48:09.828Z,5.50
2023-03-15T12:50:44.703Z,7.00
2023-03-15T12:53:00.646Z,5.30
2023-03-15T12:55:18.395Z,4.10
2023-03-15T12:57:39.101Z,5.80
2023-03-15T12:59:55.959Z,4.70
2023-03-15T13:02:32.481Z,5.20
2023-03-15T13:05:09.330Z,5.60
2023-03-15T13:07:50.758Z,5.60
2023-03-15T13:10:22.072Z,5.10
2023-03-15T13:12:42.569Z,6.00
2023-03-15T13:15:19.399Z,5.00
2023-03-15T13:17:52.491Z,4.40
2023-03-15T13:20:23.423Z,6.40
2023-03-15T13:23:15.034Z,3.80
2023-03-15T13:25:39.537Z,3.90
2023-03-15T13:27:56.686Z,4.00
2023-03-15T13:30:37.202Z,4.80
2023-03-15T13:33:02.312Z,5.10
2023-03-15T13:35:23.933Z,5.30
2023-03-15T13:37:42.205Z,5.20
2023-03-15T13:39:57.433Z,5.20
2023-03-15T13:42:24.126Z,7.70
2023-03-15T13:44:36.684Z,6.50
2023-03-15T13:46:50.481Z,7.60
2023-03-15T13:49:03.061Z,7.50
2023-03-15T13:51:28.012Z,5.10
2023-03-15T13:53:49.568Z,5.00
2023-03-15T13:56:07.682Z,6.60
2023-03-15T13:58:23.542Z,6.60
2023-03-15T14:00:37.025Z,7.40
2023-03-15T14:03:00.662Z,6.00
2023-03-15T14:05:16.692Z,5.50
2023-03-15T14:07:41.782Z,6.20
2023-03-15T14:10:21.668Z,7.10
2023-03-15T14:12:34.854Z,7.80
2023-03-15T14:14:53.145Z,8.70
2023-03-15T14:17:27.144Z,11.40
2023-03-15T14:19:40.322Z,7.90
2023-03-15T14:22:03.139Z,8.10
2023-03-15T14:24:36.332Z,10.50
2023-03-15T14:26:54.697Z,12.70
2023-03-15T14:29:16.521Z,9.70
2023-03-15T14:31:32.306Z,7.00
2023-03-15T14:33:54.038Z,6.50
2023-03-15T14:36:25.222Z,16.00
2023-03-15T14:38:39.250Z,15.30
2023-03-15T14:40:53.462Z,6.40
2023-03-15T14:43:09.254Z,7.40
2023-03-15T14:45:22.418Z,5.50
2023-03-15T14:47:55.013Z,5.70
2023-03-15T14:50:18.284Z,5.60
2023-03-15T14:52:33.002Z,6.70
2023-03-15T14:54:49.639Z,5.80
2023-03-15T14:57:02.408Z,4.60
2023-03-15T14:59:15.062Z,5.30
2023-03-15T15:01:28.127Z,4.40
2023-03-15T15:03:47.019Z,6.10
2023-03-15T15:06:01.128Z,4.40
2023-03-15T15:08:18.058Z,5.60
2023-03-15T15:10:32.145Z,6.10
2023-03-15T15:12:46.709Z,6.00
2023-03-15T15:15:01.044Z,5.80
2023-03-15T15:17:13.820Z,12.30
2023-03-15T15:19:26.390Z,8.70
2023-03-15T15:21:39.542Z,4.70
2023-03-15T15:23:58.611Z,5.90
2023-03-15T15:26:20.644Z,20.10
2023-03-15T15:28:36.851Z,6.70
2023-03-15T15:30:52.137Z,5.60
2023-03-15T15:33:05.877Z,3.00
2023-03-15T15:35:20.053Z,4.60
2023-03-15T15:37:32.595Z,4.10
2023-03-15T15:39:45.157Z,4.80
2023-03-15T15:41:57.787Z,5.80
2023-03-15T15:44:19.953Z,7.20
2023-03-15T15:46:32.931Z,5.00
2023-03-15T15:48:45.745Z,7.00
2023-03-15T15:50:58.290Z,7.40
2023-03-15T15:53:16.364Z,3.60
2023-03-15T15:55:33.628Z,3.60
2023-03-15T15:57:49.569Z,4.10
2023-03-15T16:00:02.256Z,3.60
2023-03-15T16:02:21.997Z,4.20
2023-03-15T16:04:34.710Z,4.20
2023-03-15T16:06:53.683Z,4.50
2023-03-15T16:09:08.376Z,5.90
2023-03-15T16:11:21.157Z,6.20
2023-03-15T16:13:33.804Z,5.00
2023-03-15T16:15:46.392Z,16.00
2023-03-15T16:18:01.146Z,13.90
2023-03-15T16:20:18.335Z,11.10
2023-03-15T16:22:31.709Z,6.20
2023-03-15T16:24:47.165Z,7.40
2023-03-15T16:27:05.372Z,7.90
2023-03-15T16:29:22.280Z,8.10
2023-03-15T16:31:35.197Z,5.80
2023-03-15T16:33:48.804Z,5.80
2023-03-15T16:36:02.629Z,6.80
2023-03-15T16:38:23.867Z,6.60
2023-03-15T16:40:41.130Z,5.90
2023-03-15T16:42:54.518Z,6.10
2023-03-15T16:45:13.953Z,4.70
2023-03-15T16:47:26.659Z,7.00
2023-03-15T16:49:39.266Z,6.10
2023-03-15T16:51:53.530Z,7.80
2023-03-15T16:54:19.579Z,7.30
2023-03-15T16:56:37.125Z,9.60
2023-03-15T16:58:52.681Z,21.70
2023-03-15T17:01:08.203Z,15.40
2023-03-15T17:03:21.312Z,12.10
2023-03-15T17:05:33.928Z,21.60
2023-03-15T17:07:48.864Z,12.70
2023-03-15T17:10:08.236Z,25.20
2023-03-15T17:12:24.896Z,19.40
2023-03-15T17:14:38.835Z,11.10
2023-03-15T17:16:51.377Z,10.10
2023-03-15T17:19:04.339Z,13.60
2023-03-15T17:21:20.474Z,15.60
2023-03-15T17:23:33.138Z,7.80
2023-03-15T17:25:45.710Z,9.70
2023-03-15T17:27:58.257Z,15.60
2023-03-15T17:30:19.508Z,20.60
2023-03-15T17:32:32.130Z,31.90
2023-03-15T17:34:47.193Z,26.80
2023-03-15T17:36:59.810Z,16.40
2023-03-15T17:39:17.044Z,15.70
2023-03-15T17:41:36.955Z,18.50
2023-03-15T17:43:51.607Z,15.80
2023-03-15T17:46:04.217Z,14.10
2023-03-15T17:48:16.838Z,12.80
2023-03-15T17:50:32.339Z,11.10
2023-03-15T17:52:46.400Z,12.30
2023-03-15T17:54:58.917Z,16.80
2023-03-15T17:57:12.900Z,23.70
2023-03-15T17:59:25.461Z,24.20
2023-03-15T18:01:40.758Z,22.90
2023-03-15T18:03:54.459Z,27.00
2023-03-15T18:06:07.384Z,31.80
2023-03-15T18:08:21.335Z,56.00
2023-03-15T18:10:36.874Z,61.70
2023-03-15T18:12:49.524Z,42.90
2023-03-15T18:15:02.960Z,31.20
2023-03-15T18:17:15.682Z,14.10
2023-03-15T18:19:28.499Z,12.00
2023-03-15T18:21:41.087Z,10.50
2023-03-15T18:23:54.148Z,11.50
2023-03-15T18:26:07.008Z,12.40
2023-03-15T18:28:19.549Z,10.60
2023-03-15T18:30:32.161Z,9.10
2023-03-15T18:32:45.488Z,10.30
2023-03-15T18:34:58.145Z,11.30
2023-03-15T18:37:11.683Z,10.30
2023-03-15T18:39:25.238Z,10.40
2023-03-15T18:41:37.820Z,11.80
2023-03-15T18:43:51.659Z,15.50
2023-03-15T18:46:04.340Z,14.60
2023-03-15T18:48:18.394Z,20.50
2023-03-15T18:50:33.679Z,16.80
2023-03-15T18:52:46.396Z,12.40
2023-03-15T18:54:59.033Z,10.60
2023-03-15T18:57:11.652Z,8.50
2023-03-15T18:59:25.851Z,10.40
2023-03-15T19:01:38.746Z,11.60
2023-03-15T19:03:52.697Z,13.60
2023-03-15T19:06:07.682Z,12.40
2023-03-15T19:08:20.357Z,15.50
2023-03-15T19:10:33.024Z,19.30
2023-03-15T19:12:46.909Z,20.50
2023-03-15T19:14:59.550Z,14.80
2023-03-15T19:17:12.266Z,14.10
2023-03-15T19:19:24.873Z,11.90
2023-03-15T19:21:38.814Z,13.90
2023-03-15T19:23:51.402Z,10.40
2023-03-15T19:26:04.623Z,9.60
2023-03-15T19:28:17.274Z,10.80
2023-03-15T19:30:30.871Z,14.00
2023-03-15T19:32:46.792Z,18.90
2023-03-15T19:34:59.365Z,23.30
2023-03-15T19:37:12.167Z,29.30
2023-03-15T19:39:24.848Z,29.90
2023-03-15T19:41:37.596Z,29.70
2023-03-15T19:43:50.184Z,24.20
2023-03-15T19:46:05.122Z,26.20
2023-03-15T19:48:17.737Z,25.90
2023-03-15T19:50:32.452Z,27.40
2023-03-15T19:52:48.228Z,21.80
2023-03-15T19:55:01.187Z,21.00
2023-03-15T19:57:14.242Z,19.90
2023-03-15T19:59:27.297Z,18.00
2023-03-15T20:01:39.998Z,17.10
2023-03-15T20:03:52.619Z,20.40
2023-03-15T20:06:07.840Z,21.60
2023-03-15T20:08:20.867Z,21.00
2023-03-15T20:10:33.590Z,17.20
2023-03-15T20:12:47.169Z,17.40
2023-03-15T20:14:59.768Z,15.10
2023-03-15T20:17:12.396Z,15.90
2023-03-15T20:19:24.980Z,15.30
2023-03-15T20:21:37.831Z,18.80
2023-03-15T20:23:50.509Z,18.50
2023-03-15T20:26:10.716Z,15.90
2023-03-15T20:28:23.461Z,16.10
2023-03-15T20:30:39.150Z,16.50
2023-03-15T20:32:52.084Z,21.30
2023-03-15T20:35:09.023Z,27.20
2023-03-15T20:37:22.843Z,23.80
2023-03-15T20:39:35.424Z,24.30
2023-03-15T20:41:48.039Z,27.30
2023-03-15T20:44:01.269Z,27.50
2023-03-15T20:46:16.649Z,25.30
2023-03-15T20:48:31.496Z,26.40
2023-03-15T20:50:46.800Z,24.20
2023-03-15T20:52:59.348Z,21.10
2023-03-15T20:55:13.654Z,22.80
2023-03-15T20:57:26.371Z,27.80
2023-03-15T20:59:39.784Z,27.30
2023-03-15T21:01:52.737Z,30.20
2023-03-15T21:04:05.478Z,25.00
2023-03-15T21:06:18.052Z,24.90
2023-03-15T21:08:31.221Z,20.80
2023-03-15T21:10:43.842Z,27.80
2023-03-15T21:12:56.410Z,39.70
2023-03-15T21:15:09.349Z,25.20
2023-03-15T21:17:21.890Z,14.90
2023-03-15T21:19:34.456Z,15.30
2023-03-15T21:21:48.654Z,12.70
2023-03-15T21:24:02.140Z,13.30
2023-03-15T21:26:14.883Z,13.60
2023-03-15T21:28:28.248Z,11.80
2023-03-15T21:30:41.125Z,12.90
2023-03-15T21:32:53.753Z,12.70
2023-03-15T21:35:07.368Z,13.30
2023-03-15T21:37:20.076Z,13.80
2023-03-15T21:39:32.645Z,13.80
2023-03-15T21:41:45.250Z,13.90
2023-03-15T21:43:57.793Z,16.30
2023-03-15T21:46:13.843Z,18.90
2023-03-15T21:48:27.019Z,22.80
2023-03-15T21:50:39.879Z,23.50
2023-03-15T21:52:52.821Z,24.80
2023-03-15T21:55:06.422Z,24.40
2023-03-15T21:57:19.266Z,17.60
2023-03-15T21:59:32.109Z,16.80
2023-03-15T22:01:44.771Z,17.80
2023-03-15T22:03:57.332Z,19.90
2023-03-15T22:06:12.967Z,24.60
2023-03-15T22:08:26.245Z,28.60
2023-03-15T22:10:38.811Z,35.20
2023-03-15T22:12:53.866Z,34.30
2023-03-15T22:15:07.702Z,39.20
2023-03-15T22:17:20.276Z,36.40
2023-03-15T22:19:33.009Z,29.80
2023-03-15T22:21:45.573Z,38.30
2023-03-15T22:23:58.287Z,33.70
2023-03-15T22:26:11.101Z,24.00
2023-03-15T22:28:25.129Z,18.50
2023-03-15T22:30:37.794Z,25.80
2023-03-15T22:32:50.515Z,21.70
2023-03-15T22:35:04.331Z,24.40
2023-03-15T22:37:16.942Z,17.50
2023-03-15T22:39:31.275Z,28.60
2023-03-15T22:41:43.851Z,31.70
2023-03-15T22:43:57.640Z,29.90
2023-03-15T22:46:10.274Z,84.50
2023-03-15T22:48:23.234Z,53.60
2023-03-15T22:50:35.794Z,49.20
2023-03-15T22:52:48.501Z,29.50
2023-03-15T22:55:01.110Z,32.60
2023-03-15T22:57:13.847Z,27.70
2023-03-15T22:59:28.956Z,41.90
2023-03-15T23:01:41.600Z,29.70
2023-03-15T23:03:54.247Z,33.00
2023-03-15T23:06:06.937Z,27.50
2023-03-15T23:08:19.612Z,29.20
2023-03-15T23:10:33.048Z,26.00
2023-03-15T23:12:45.998Z,44.80
2023-03-15T23:14:58.696Z,52.80
2023-03-15T23:17:11.400Z,32.30
2023-03-15T23:19:23.969Z,27.10
2023-03-15T23:21:36.633Z,27.60
2023-03-15T23:23:49.261Z,40.00
2023-03-15T23:26:02.439Z,41.00
2023-03-15T23:28:17.342Z,25.10
2023-03-15T23:30:35.473Z,28.10
2023-03-15T23:32:49.452Z,33.90
2023-03-15T23:35:03.857Z,32.60
2023-03-15T23:37:16.819Z,27.80
2023-03-15T23:39:29.645Z,20.50
2023-03-15T23:41:45.668Z,17.10
2023-03-15T23:43:58.312Z,16.40
2023-03-15T23:46:14.542Z,16.40
2023-03-15T23:48:27.786Z,16.30
2023-03-15T23:50:45.173Z,15.50
2023-03-15T23:52:57.808Z,16.50
2023-03-15T23:55:11.570Z,17.80
2023-03-15T23:57:24.358Z,14.40
2023-03-15T23:59:38.644Z,16.00
